This demonstration page uses our WeatherBlox Daily Observations layout. Learn more.

38.88101, -77.10428

Hourly Observations for November 6, 2016

Temp ( °F °C ) Dew Point ( °F °C ) Humidity (%) Winds ( mph kmh ) Pressure ( in mb ) Visibility ( mi km ) Precip ( " mm )
12:52 am 00:52 Clear 50 10 41 5 71 71 SW 6 9 30.27 1025 10 16.09344 0 0
1:52 am 01:52 Clear 53 11.7 39 3.9 59 59 SW 3 6 30.27 1025 10 16.09344 0 0
1:52 am 01:52 Mostly Clear 53 11.7 39 3.9 59 59 SSW 3 6 30.27 1025 10 16.09344 0 0
2:52 am 02:52 Mostly Cloudy 52 11.1 43 6.1 72 72 ESE 5 7 30.27 1025 10 16.09344 0 0
3:52 am 03:52 Mostly Cloudy 56 13.3 39 3.9 53 53 WNW 10 17 30.24 1024 10 16.09344 0 0
4:52 am 04:52 Partly Cloudy 54 12.2 38 3.3 55 55 Calm 30.27 1025 10 16.09344 0 0
5:52 am 05:52 Mostly Clear 51 10.6 39 3.9 64 64 Calm 30.27 1025 10 16.09344 0 0
6:52 am 06:52 Mostly Cloudy 52 11.1 40 4.4 64 64 Calm 30.3 1026 10 16.09344 0 0
7:52 am 07:52 Mostly Cloudy 57 13.9 41 5 55 55 NNW 15 24 30.3 1026 10 16.09344 0 0
8:52 am 08:52 Mostly Cloudy 61 16.1 42 5.6 50 50 NNW 15 24 30.3 1026 10 16.09344 0 0
9:52 am 09:52 Mostly Cloudy 63 17.2 42 5.6 47 47 NW 14 22 30.3 1026 10 16.09344 0 0
10:52 am 10:52 Mostly Cloudy 67 19.4 37 2.8 33 33 N 18 30 30.3 1026 10 16.09344 0 0
11:52 am 11:52 Mostly Cloudy 68 20 36 2.2 31 31 NNW 18 30 30.3 1026 10 16.09344 0 0
12:52 pm 12:52 Mostly Cloudy 68 20 35 1.7 30 30 NNW 15 24 30.27 1025 10 16.09344 0 0
1:52 pm 13:52 Mostly Cloudy 68 20 31 -0.6 25 25 N 18 30 30.27 1025 10 16.09344 0 0
2:52 pm 14:52 Mostly Cloudy 69 20.6 31 -0.6 24 24 NNW 17 28 30.27 1025 10 16.09344 0 0
3:52 pm 15:52 Mostly Cloudy 69 20.6 31 -0.6 24 24 N 13 20 30.27 1025 10 16.09344 0 0
4:52 pm 16:52 Mostly Cloudy 65 18.3 31 -0.6 28 28 N 13 20 30.3 1026 10 16.09344 0 0
5:52 pm 17:52 Mostly Cloudy 60 15.6 32 0 35 35 N 9 15 30.3 1026 10 16.09344 0 0
6:52 pm 18:52 Mostly Cloudy 60 15.6 31 -0.6 33 33 N 7 11 30.33 1027 10 16.09344 0 0
7:52 pm 19:52 Mostly Cloudy 56 13.3 36 2.2 47 47 N 8 13 30.33 1027 10 16.09344 0 0
8:52 pm 20:52 Mostly Cloudy 56 13.3 40 4.4 55 55 Calm 30.36 1028 10 16.09344 0 0
9:52 pm 21:52 Mostly Clear 56 13.3 36 2.2 47 47 NNE 8 13 30.36 1028 10 16.09344 0 0
10:52 pm 22:52 Clear 54 12.2 39 3.9 57 57 NE 7 11 30.39 1029 10 16.09344 0 0
11:52 pm 23:52 Mostly Clear 52 11.1 35 1.7 53 53 NE 9 15 30.42 1030 10 16.09344 0 0

Powered by AerisWeather